Time;durP1;ratioP1;P1;durP2;ratioP2;P2;SDS_P1;SDS_P2;PMS_P1;PMS_P2;Temp;Humidity;BMP_temperature;BMP_pressure;BME280_temperature;BME280_humidity;BME280_pressure;Samples;Min_cycle;Max_cycle;Signal;HPM_P1;HPM_P2
2022/06/05 00:01:09;;;;;;;;;;;11.90;99.90;;;;;;6194434;23;19938;-78
2022/06/05 00:03:44;;;;;;;;;;;11.90;99.90;;;;;;6194609;23;19916;-78
2022/06/05 00:06:32;;;;;;;;;;;11.80;99.90;;;;;;6194836;23;19938;-78
2022/06/05 00:09:07;;;;;;;;;;;11.80;99.90;;;;;;6194208;23;20397;-78
2022/06/05 00:11:46;;;;;;;;;;;11.80;99.90;;;;;;6194806;23;19911;-78
2022/06/05 00:14:11;;;;;;;;;;;11.70;99.90;;;;;;6232241;22;20241;-78
2022/06/05 00:16:37;;;;;;;;;;;11.70;99.90;;;;;;6276033;22;19915;-79
2022/06/05 00:19:03;;;;;;;;;;;11.80;99.90;;;;;;6249061;22;19911;-78
2022/06/05 00:21:28;;;;;;;;;;;11.70;99.90;;;;;;6277802;22;19917;-78
2022/06/05 00:23:54;;;;;;;;;;;11.70;99.90;;;;;;6277042;22;19935;-78
2022/06/05 00:26:19;;;;;;;;;;;11.70;99.90;;;;;;6276368;22;20387;-78
2022/06/05 00:28:58;;;;;;;;;;;11.70;99.90;;;;;;6276850;22;19918;-80
2022/06/05 00:31:43;;;;;;;;;;;11.60;99.90;;;;;;6274834;22;20325;-79
2022/06/05 00:34:08;;;;;;;;;;;11.60;99.90;;;;;;6274873;22;20237;-79
2022/06/05 00:36:45;;;;;;;;;;;11.70;99.90;;;;;;6276759;22;19954;-79
2022/06/05 00:39:35;;;;;;;;;;;11.70;99.90;;;;;;6274210;22;19922;-79
2022/06/05 00:42:01;;;;;;;;;;;11.70;99.90;;;;;;6249484;22;20490;-79
2022/06/05 00:44:29;;;;;;;;;;;11.70;99.90;;;;;;6248748;22;19946;-79
2022/06/05 00:46:56;;;;;;;;;;;11.60;99.90;;;;;;6274337;22;20419;-79
2022/06/05 00:49:24;;;;;;;;;;;11.70;99.90;;;;;;6274441;22;19911;-79
2022/06/05 00:51:49;;;;;;;;;;;11.60;99.90;;;;;;6274575;22;19911;-78
2022/06/05 00:54:15;;;;;;;;;;;11.60;99.90;;;;;;6274504;22;20004;-79
2022/06/05 00:56:40;;;;;;;;;;;11.60;99.90;;;;;;6274411;22;19922;-78
2022/06/05 00:59:07;;;;;;;;;;;11.60;99.90;;;;;;6274303;22;19912;-78
2022/06/05 01:01:33;;;;;;;;;;;11.60;99.90;;;;;;6274151;22;19917;-78
2022/06/05 01:04:03;;;;;;;;;;;11.60;99.90;;;;;;6249187;22;20323;-78
2022/06/05 01:06:31;;;;;;;;;;;11.60;99.90;;;;;;6248915;22;19949;-78
2022/06/05 01:08:57;;;;;;;;;;;11.60;99.90;;;;;;6276026;22;19911;-77
2022/06/05 01:11:37;;;;;;;;;;;11.50;99.90;;;;;;6273514;22;20005;-78
2022/06/05 01:14:15;;;;;;;;;;;11.50;99.90;;;;;;6273821;22;19911;-78
2022/06/05 01:16:40;;;;;;;;;;;11.50;99.90;;;;;;6248245;22;19922;-79
2022/06/05 01:19:11;;;;;;;;;;;11.50;99.90;;;;;;6248423;22;20253;-77
2022/06/05 01:21:55;;;;;;;;;;;11.50;99.90;;;;;;6273765;22;19915;-77
2022/06/05 01:24:21;;;;;;;;;;;11.40;99.90;;;;;;6274755;22;19911;-78
2022/06/05 01:26:52;;;;;;;;;;;11.50;99.90;;;;;;6274500;22;19942;-77
2022/06/05 01:29:23;;;;;;;;;;;11.40;99.90;;;;;;6274150;22;20321;-78
2022/06/05 01:31:51;;;;;;;;;;;11.40;99.90;;;;;;6248360;22;20329;-80
2022/06/05 01:34:35;;;;;;;;;;;11.30;99.90;;;;;;6276301;22;19919;-78
2022/06/05 01:37:06;;;;;;;;;;;11.30;99.90;;;;;;6274177;22;19912;-78
2022/06/05 01:39:39;;;;;;;;;;;11.30;99.90;;;;;;6275138;22;20325;-80
2022/06/05 01:42:07;;;;;;;;;;;11.40;99.90;;;;;;6274165;22;20506;-77
2022/06/05 01:44:36;;;;;;;;;;;11.40;99.90;;;;;;6292538;22;19943;-78
2022/06/05 01:47:05;;;;;;;;;;;11.40;99.90;;;;;;6277297;22;19903;-84
2022/06/05 01:49:35;;;;;;;;;;;11.30;99.90;;;;;;6288680;22;19919;-77
2022/06/05 01:52:07;;;;;;;;;;;11.30;99.90;;;;;;6248335;22;19911;-76
2022/06/05 01:54:36;;;;;;;;;;;11.30;99.90;;;;;;6273017;22;19911;-77
2022/06/05 01:57:04;;;;;;;;;;;11.40;99.90;;;;;;6248381;22;19911;-77
2022/06/05 01:59:42;;;;;;;;;;;11.40;99.90;;;;;;6273357;22;19915;-77
2022/06/05 02:02:10;;;;;;;;;;;11.30;99.90;;;;;;6248262;22;19915;-77
2022/06/05 02:04:37;;;;;;;;;;;11.40;99.90;;;;;;6273662;22;19918;-76
2022/06/05 02:07:02;;;;;;;;;;;11.30;99.90;;;;;;6275334;22;19911;-76
2022/06/05 02:09:37;;;;;;;;;;;11.30;99.90;;;;;;6273214;22;20260;-77
2022/06/05 02:12:04;;;;;;;;;;;11.30;99.90;;;;;;6273664;22;19911;-76
2022/06/05 02:14:30;;;;;;;;;;;11.30;99.90;;;;;;6273242;22;19985;-76
2022/06/05 02:16:55;;;;;;;;;;;11.30;99.90;;;;;;6275048;22;20503;-80
2022/06/05 02:19:21;;;;;;;;;;;11.40;99.90;;;;;;6273123;22;19915;-80
2022/06/05 02:21:47;;;;;;;;;;;11.30;99.90;;;;;;6272789;22;19915;-80
2022/06/05 02:24:13;;;;;;;;;;;11.30;99.90;;;;;;6273054;22;20382;-79
2022/06/05 02:26:39;;;;;;;;;;;11.30;99.90;;;;;;6273543;22;19918;-80
2022/06/05 02:29:18;;;;;;;;;;;11.20;99.90;;;;;;6273219;22;19911;-80
2022/06/05 02:31:43;;;;;;;;;;;11.20;99.90;;;;;;6273519;22;19911;-79
2022/06/05 02:34:13;;;;;;;;;;;11.20;99.90;;;;;;6273512;22;19915;-79
2022/06/05 02:36:42;;;;;;;;;;;11.30;99.90;;;;;;6274299;22;19912;-80
2022/06/05 02:39:13;;;;;;;;;;;11.30;99.90;;;;;;6248236;22;19915;-80
2022/06/05 02:41:59;;;;;;;;;;;11.30;99.90;;;;;;6274376;22;19911;-80
2022/06/05 02:44:49;;;;;;;;;;;11.20;99.90;;;;;;6257105;22;19937;-79
2022/06/05 02:47:31;;;;;;;;;;;11.20;99.90;;;;;;6231300;22;20249;-81
2022/06/05 02:50:19;;;;;;;;;;;11.20;99.90;;;;;;6273773;22;19926;-80
2022/06/05 02:52:45;;;;;;;;;;;11.30;99.90;;;;;;6273829;22;19911;-81
2022/06/05 02:55:15;;;;;;;;;;;11.30;99.90;;;;;;6273829;22;19986;-78
2022/06/05 02:57:41;;;;;;;;;;;11.30;99.90;;;;;;6273389;22;19915;-77
2022/06/05 03:00:08;;;;;;;;;;;11.30;99.90;;;;;;6273011;22;19927;-78
2022/06/05 03:05:18;;;;;;;;;;;11.30;99.90;;;;;;6273251;22;19965;-78
2022/06/05 03:07:44;;;;;;;;;;;11.30;99.90;;;;;;6249939;22;20291;-77
2022/06/05 03:10:10;;;;;;;;;;;11.40;99.90;;;;;;6275343;22;19935;-78
2022/06/05 03:12:36;;;;;;;;;;;11.40;99.90;;;;;;6275173;22;20256;-79
2022/06/05 03:15:01;;;;;;;;;;;11.30;99.90;;;;;;6275469;22;19918;-78
2022/06/05 03:17:30;;;;;;;;;;;11.30;99.90;;;;;;6249788;22;19915;-78
2022/06/05 03:19:56;;;;;;;;;;;11.30;99.90;;;;;;6274989;22;20498;-78
2022/06/05 03:22:22;;;;;;;;;;;11.40;99.90;;;;;;6275729;22;20290;-78
2022/06/05 03:24:48;;;;;;;;;;;11.30;99.90;;;;;;6275668;22;19915;-78
2022/06/05 03:27:13;;;;;;;;;;;11.40;99.90;;;;;;6250140;22;19943;-78
2022/06/05 03:29:39;;;;;;;;;;;11.40;99.90;;;;;;6275512;22;19912;-78
2022/06/05 03:32:04;;;;;;;;;;;11.40;99.90;;;;;;6275632;22;20225;-79
2022/06/05 03:34:30;;;;;;;;;;;11.40;99.90;;;;;;6277021;22;19946;-78
2022/06/05 03:36:55;;;;;;;;;;;11.40;99.90;;;;;;6275111;22;19911;-78
2022/06/05 03:39:21;;;;;;;;;;;11.50;99.90;;;;;;6274948;22;19945;-78
2022/06/05 03:41:47;;;;;;;;;;;11.40;99.90;;;;;;6274907;22;19918;-79
2022/06/05 03:44:13;;;;;;;;;;;11.50;99.90;;;;;;6274932;22;19911;-81
2022/06/05 03:46:39;;;;;;;;;;;11.50;99.90;;;;;;6275194;22;19915;-78
2022/06/05 03:49:08;;;;;;;;;;;11.40;99.90;;;;;;6274985;22;20288;-78
2022/06/05 03:51:34;;;;;;;;;;;11.40;99.90;;;;;;6275249;22;19915;-78
2022/06/05 03:54:00;;;;;;;;;;;11.40;99.90;;;;;;6274751;22;19918;-77
2022/06/05 03:56:26;;;;;;;;;;;11.50;99.90;;;;;;6248906;22;19911;-78
2022/06/05 03:58:52;;;;;;;;;;;11.50;99.90;;;;;;6274727;22;20390;-78
2022/06/05 04:01:19;;;;;;;;;;;11.50;99.90;;;;;;6274280;22;19923;-78
2022/06/05 04:03:45;;;;;;;;;;;11.60;99.90;;;;;;6249046;22;20332;-78
2022/06/05 04:06:12;;;;;;;;;;;11.60;99.90;;;;;;6274762;22;19915;-78
2022/06/05 04:08:38;;;;;;;;;;;11.60;99.90;;;;;;6274717;22;19922;-78
2022/06/05 04:11:04;;;;;;;;;;;11.60;99.90;;;;;;6248819;22;19911;-80
2022/06/05 04:13:30;;;;;;;;;;;11.60;99.90;;;;;;6274217;22;19911;-77
2022/06/05 04:15:55;;;;;;;;;;;11.60;99.90;;;;;;6274636;22;19911;-79
2022/06/05 04:18:21;;;;;;;;;;;11.70;99.90;;;;;;6248126;22;19918;-78
2022/06/05 04:20:46;;;;;;;;;;;11.70;99.90;;;;;;6275556;22;19915;-78
2022/06/05 04:23:12;;;;;;;;;;;11.80;99.90;;;;;;6274109;22;20329;-78
2022/06/05 04:25:41;;;;;;;;;;;11.90;99.90;;;;;;6248668;22;19987;-78
2022/06/05 04:28:07;;;;;;;;;;;11.90;99.90;;;;;;6274603;22;19911;-78
2022/06/05 04:30:36;;;;;;;;;;;12.00;99.90;;;;;;6248078;22;19981;-78
2022/06/05 04:33:02;;;;;;;;;;;12.10;99.90;;;;;;6274327;22;19960;-78
2022/06/05 04:35:27;;;;;;;;;;;12.20;99.90;;;;;;6249249;22;20287;-76
2022/06/05 04:37:53;;;;;;;;;;;12.20;99.90;;;;;;6274889;22;20394;-76
2022/06/05 04:40:19;;;;;;;;;;;12.30;99.90;;;;;;6248607;22;19915;-76
2022/06/05 04:42:44;;;;;;;;;;;12.40;99.90;;;;;;6276509;22;19946;-79
2022/06/05 04:45:10;;;;;;;;;;;12.40;99.90;;;;;;6276614;22;19930;-77
2022/06/05 04:47:37;;;;;;;;;;;12.50;99.90;;;;;;6276267;22;20320;-77
2022/06/05 04:50:02;;;;;;;;;;;12.60;99.90;;;;;;6274336;22;19977;-77
2022/06/05 04:52:28;;;;;;;;;;;12.70;99.90;;;;;;6274272;22;20462;-77
2022/06/05 04:54:53;;;;;;;;;;;12.80;99.90;;;;;;6249116;22;19911;-77
2022/06/05 04:57:19;;;;;;;;;;;12.90;99.90;;;;;;6274711;22;19989;-77
2022/06/05 04:59:44;;;;;;;;;;;13.00;99.90;;;;;;6274739;22;20358;-76
2022/06/05 05:02:10;;;;;;;;;;;13.00;99.90;;;;;;6276617;22;19985;-76
2022/06/05 05:04:35;;;;;;;;;;;13.00;99.90;;;;;;6277490;22;19927;-83
2022/06/05 05:07:03;;;;;;;;;;;13.10;99.90;;;;;;6278248;22;19915;-81
2022/06/05 05:09:29;;;;;;;;;;;13.20;99.90;;;;;;6285080;22;19961;-77
2022/06/05 05:11:54;;;;;;;;;;;13.20;99.90;;;;;;6274688;22;19911;-76
2022/06/05 05:14:20;;;;;;;;;;;13.20;99.90;;;;;;6274440;22;19943;-77
2022/06/05 05:16:45;;;;;;;;;;;13.40;99.90;;;;;;6249108;22;20285;-78
2022/06/05 05:19:11;;;;;;;;;;;13.40;99.90;;;;;;6249031;22;20229;-78
2022/06/05 05:21:36;;;;;;;;;;;13.50;99.90;;;;;;6273996;22;19911;-77
2022/06/05 05:24:02;;;;;;;;;;;13.60;99.90;;;;;;6249092;22;19911;-77
2022/06/05 05:26:34;;;;;;;;;;;13.70;99.90;;;;;;6248830;22;20358;-79
2022/06/05 05:29:00;;;;;;;;;;;13.70;99.90;;;;;;6274224;22;19949;-79
2022/06/05 05:31:29;;;;;;;;;;;13.70;99.90;;;;;;6248724;22;19911;-77
2022/06/05 05:33:56;;;;;;;;;;;13.80;99.90;;;;;;6274159;22;19926;-76
2022/06/05 05:36:23;;;;;;;;;;;13.80;99.90;;;;;;6249199;22;19953;-77
2022/06/05 05:44:17;;;;;;;;;;;14.10;99.90;;;;;;6274395;22;19915;-77
2022/06/05 05:46:43;;;;;;;;;;;14.20;99.90;;;;;;6274213;22;19949;-77
2022/06/05 05:49:09;;;;;;;;;;;14.30;99.90;;;;;;6248476;22;19982;-78
2022/06/05 05:51:35;;;;;;;;;;;14.50;99.90;;;;;;6248240;22;19918;-80
2022/06/05 05:54:01;;;;;;;;;;;14.70;99.90;;;;;;6248415;22;19957;-81
2022/06/05 05:56:26;;;;;;;;;;;14.90;99.90;;;;;;6248347;22;19911;-79
2022/06/05 05:58:52;;;;;;;;;;;15.00;99.90;;;;;;6248514;22;19926;-80
2022/06/05 06:01:17;;;;;;;;;;;15.00;99.90;;;;;;6273735;22;19994;-79
2022/06/05 06:03:43;;;;;;;;;;;15.10;99.90;;;;;;6275821;22;19953;-79
2022/06/05 06:06:08;;;;;;;;;;;15.10;99.90;;;;;;6275571;22;19918;-79
2022/06/05 06:08:34;;;;;;;;;;;15.10;99.90;;;;;;6277045;22;20364;-79
2022/06/05 06:10:59;;;;;;;;;;;15.20;99.90;;;;;;6276617;22;19960;-79
2022/06/05 06:13:25;;;;;;;;;;;15.20;99.90;;;;;;6277837;22;19935;-79
2022/06/05 06:15:50;;;;;;;;;;;15.30;99.90;;;;;;6245994;22;20389;-81
2022/06/05 06:18:17;;;;;;;;;;;15.40;99.90;;;;;;6217807;23;20300;-81
2022/06/05 06:20:43;;;;;;;;;;;15.50;99.90;;;;;;6192131;23;19923;-81
2022/06/05 06:23:09;;;;;;;;;;;15.60;99.90;;;;;;6217804;23;19911;-81
2022/06/05 06:25:35;;;;;;;;;;;15.70;99.90;;;;;;6217616;23;19911;-77
2022/06/05 06:28:01;;;;;;;;;;;15.80;99.90;;;;;;6217996;23;20359;-77
2022/06/05 06:30:26;;;;;;;;;;;15.90;99.90;;;;;;6192794;23;19911;-77
2022/06/05 06:32:52;;;;;;;;;;;16.00;99.90;;;;;;6219328;23;20391;-79
2022/06/05 06:35:17;;;;;;;;;;;16.10;99.90;;;;;;6247601;23;19986;-80
2022/06/05 06:37:43;;;;;;;;;;;16.40;99.90;;;;;;6221792;23;19938;-80
2022/06/05 06:40:09;;;;;;;;;;;16.70;99.90;;;;;;6220455;23;19947;-80
2022/06/05 06:42:34;;;;;;;;;;;17.00;99.90;;;;;;6248527;22;20056;-80
2022/06/05 06:45:00;;;;;;;;;;;17.20;99.90;;;;;;6221432;23;19935;-80
2022/06/05 06:47:25;;;;;;;;;;;17.40;99.90;;;;;;6247096;23;19922;-80
2022/06/05 06:49:51;;;;;;;;;;;17.50;99.90;;;;;;6221554;23;19912;-79
2022/06/05 06:52:16;;;;;;;;;;;17.70;99.90;;;;;;6221019;22;19911;-79
2022/06/05 06:54:42;;;;;;;;;;;17.90;99.90;;;;;;6248223;23;19911;-80
2022/06/05 06:57:08;;;;;;;;;;;17.90;99.90;;;;;;6196271;23;20221;-80
2022/06/05 06:59:33;;;;;;;;;;;18.10;99.90;;;;;;6219920;23;19923;-80
2022/06/05 07:01:59;;;;;;;;;;;18.30;99.90;;;;;;6247192;23;19915;-80
2022/06/05 07:04:24;;;;;;;;;;;18.50;99.90;;;;;;6247438;22;19917;-80
2022/06/05 07:06:50;;;;;;;;;;;18.70;99.90;;;;;;6248619;23;20005;-80
2022/06/05 07:09:15;;;;;;;;;;;18.80;99.90;;;;;;6247437;23;19991;-80
2022/06/05 07:11:42;;;;;;;;;;;18.90;99.90;;;;;;6247394;23;19911;-80
2022/06/05 07:14:07;;;;;;;;;;;18.90;99.90;;;;;;6248024;22;19951;-80
2022/06/05 07:16:33;;;;;;;;;;;18.80;99.90;;;;;;6247425;23;20261;-80
2022/06/05 07:18:58;;;;;;;;;;;18.80;99.90;;;;;;6195227;23;20206;-80
2022/06/05 07:21:25;;;;;;;;;;;18.80;99.90;;;;;;6246643;23;19923;-81
2022/06/05 07:23:50;;;;;;;;;;;18.90;99.90;;;;;;6219432;23;19911;-80
2022/06/05 07:26:18;;;;;;;;;;;19.00;99.90;;;;;;6219991;23;19912;-80
2022/06/05 07:28:43;;;;;;;;;;;19.00;99.90;;;;;;6246775;23;20336;-80
2022/06/05 07:31:09;;;;;;;;;;;19.10;99.90;;;;;;6245002;23;19919;-79
2022/06/05 07:33:35;;;;;;;;;;;19.20;99.90;;;;;;6246467;22;19946;-80
2022/06/05 07:36:03;;;;;;;;;;;19.30;99.90;;;;;;6219017;23;19911;-80
2022/06/05 07:38:29;;;;;;;;;;;19.30;99.90;;;;;;6245746;23;19912;-80
2022/06/05 07:40:55;;;;;;;;;;;19.40;99.90;;;;;;6247318;23;19947;-79
2022/06/05 07:43:21;;;;;;;;;;;19.50;99.90;;;;;;6248913;22;19966;-79
2022/06/05 07:45:47;;;;;;;;;;;19.60;99.90;;;;;;6248782;23;19911;-79
2022/06/05 07:48:12;;;;;;;;;;;19.70;99.90;;;;;;6248097;23;19987;-80
2022/06/05 07:54:26;;;;;;;;;;;19.80;99.90;;;;;;6247861;23;20325;-79
2022/06/05 07:56:08;;;;;;;;;;;19.80;99.90;;;;;;6223807;23;20044;-80
2022/06/05 07:58:33;;;;;;;;;;;19.80;99.90;;;;;;6222785;23;20271;-80
2022/06/05 08:00:59;;;;;;;;;;;19.70;99.90;;;;;;6197015;23;20229;-78
2022/06/05 08:03:24;;;;;;;;;;;19.70;99.90;;;;;;6246987;22;19911;-78
2022/06/05 08:05:50;;;;;;;;;;;19.80;99.90;;;;;;6248649;23;19911;-80
2022/06/05 08:08:16;;;;;;;;;;;19.80;99.90;;;;;;6199925;23;20000;-80
2022/06/05 08:10:41;;;;;;;;;;;19.90;99.90;;;;;;6199610;23;20230;-79
2022/06/05 08:13:08;;;;;;;;;;;20.10;99.90;;;;;;6249820;22;19912;-79
2022/06/05 08:15:34;;;;;;;;;;;20.30;99.90;;;;;;6251072;22;19927;-79
2022/06/05 08:17:59;;;;;;;;;;;20.40;99.90;;;;;;6223852;23;19915;-79
2022/06/05 08:20:25;;;;;;;;;;;20.40;99.90;;;;;;6251206;23;19973;-79
2022/06/05 08:22:51;;;;;;;;;;;20.30;99.90;;;;;;6250617;22;20245;-79
2022/06/05 08:25:16;;;;;;;;;;;20.40;99.90;;;;;;6250983;23;19919;-79
2022/06/05 08:27:42;;;;;;;;;;;20.40;99.90;;;;;;6198067;23;19918;-79
2022/06/05 08:30:08;;;;;;;;;;;20.40;99.90;;;;;;6249397;23;20256;-79
2022/06/05 08:32:33;;;;;;;;;;;20.50;99.90;;;;;;6222559;22;19938;-79
2022/06/05 08:34:59;;;;;;;;;;;20.60;99.90;;;;;;6223846;23;19911;-79
2022/06/05 08:43:15;;;;;;;;;;;20.80;99.90;;;;;;6250026;22;19948;-80
2022/06/05 08:45:44;;;;;;;;;;;20.90;99.90;;;;;;6250504;23;19939;-80
2022/06/05 08:48:39;;;;;;;;;;;21.20;99.90;;;;;;6197352;23;19915;-79
2022/06/05 08:51:20;;;;;;;;;;;21.40;99.90;;;;;;6202929;23;20252;-79
2022/06/05 08:53:50;;;;;;;;;;;21.50;99.90;;;;;;6224006;23;20252;-80
2022/06/05 08:56:19;;;;;;;;;;;21.50;99.90;;;;;;6223335;23;19969;-79
2022/06/05 08:59:06;;;;;;;;;;;21.60;99.90;;;;;;6197157;23;19935;-78
2022/06/05 09:01:35;;;;;;;;;;;21.80;99.90;;;;;;6250310;23;19955;-79
2022/06/05 09:04:04;;;;;;;;;;;22.00;99.90;;;;;;6226476;23;19911;-79
2022/06/05 09:06:35;;;;;;;;;;;22.30;99.90;;;;;;6222210;22;19955;-78
2022/06/05 09:09:05;;;;;;;;;;;22.50;99.90;;;;;;6221841;23;19924;-78
2022/06/05 09:11:33;;;;;;;;;;;22.50;99.90;;;;;;6238009;23;19920;-80
2022/06/05 09:14:02;;;;;;;;;;;22.60;99.90;;;;;;6245932;22;20280;-80
2022/06/05 09:16:29;;;;;;;;;;;22.70;99.90;;;;;;6193702;23;19915;-80
2022/06/05 09:18:54;;;;;;;;;;;22.70;99.90;;;;;;6193374;23;19911;-79
2022/06/05 09:21:42;;;;;;;;;;;22.80;99.90;;;;;;6218864;23;19962;-80
2022/06/05 09:24:10;;;;;;;;;;;22.90;99.90;;;;;;6218292;23;19916;-80
2022/06/05 09:26:42;;;;;;;;;;;22.80;99.90;;;;;;6193778;23;20326;-80
2022/06/05 09:29:13;;;;;;;;;;;22.70;99.90;;;;;;6217961;23;20333;-78
2022/06/05 09:31:39;;;;;;;;;;;22.70;99.90;;;;;;6216317;23;19960;-79
2022/06/05 09:34:09;;;;;;;;;;;22.70;99.90;;;;;;6243671;22;19990;-78
2022/06/05 09:36:35;;;;;;;;;;;22.60;99.90;;;;;;6217451;23;19930;-78
2022/06/05 09:39:05;;;;;;;;;;;22.60;99.90;;;;;;6192592;23;19990;-79
2022/06/05 09:41:41;;;;;;;;;;;22.60;99.90;;;;;;6217743;23;20329;-79
2022/06/05 09:44:26;;;;;;;;;;;22.70;99.90;;;;;;6217623;23;20253;-79
2022/06/05 09:47:08;;;;;;;;;;;22.70;99.90;;;;;;6218997;23;19938;-79
2022/06/05 09:49:36;;;;;;;;;;;22.80;99.90;;;;;;6216843;23;20257;-79
2022/06/05 09:52:11;;;;;;;;;;;22.80;99.90;;;;;;6216801;23;20296;-80
2022/06/05 09:54:39;;;;;;;;;;;22.80;99.90;;;;;;6218804;23;19919;-80
2022/06/05 09:59:52;;;;;;;;;;;22.80;99.90;;;;;;6244548;23;20364;-80
2022/06/05 10:02:19;;;;;;;;;;;22.90;99.90;;;;;;6192756;22;19915;-79
2022/06/05 10:04:45;;;;;;;;;;;22.80;99.90;;;;;;6217803;23;20328;-80
2022/06/05 10:07:20;;;;;;;;;;;22.80;99.90;;;;;;6244380;23;20006;-80
2022/06/05 10:09:46;;;;;;;;;;;22.70;99.90;;;;;;6190940;23;19922;-78
2022/06/05 10:12:19;;;;;;;;;;;22.80;99.90;;;;;;6216899;23;19915;-80
2022/06/05 10:14:51;;;;;;;;;;;22.80;99.90;;;;;;6243593;22;19969;-80
2022/06/05 10:17:26;;;;;;;;;;;22.90;99.90;;;;;;6247376;22;20259;-80
2022/06/05 10:20:04;;;;;;;;;;;22.90;99.90;;;;;;6246125;22;19919;-80
2022/06/05 10:22:43;;;;;;;;;;;23.00;99.90;;;;;;6274455;22;19917;-79
2022/06/05 10:25:15;;;;;;;;;;;22.90;99.90;;;;;;6276151;22;19929;-80
2022/06/05 10:27:49;;;;;;;;;;;22.90;99.90;;;;;;6276502;22;19912;-80
2022/06/05 10:30:16;;;;;;;;;;;22.90;99.90;;;;;;6273395;22;19911;-79
2022/06/05 10:32:49;;;;;;;;;;;22.80;99.90;;;;;;6274357;22;19911;-79
2022/06/05 10:35:27;;;;;;;;;;;22.80;99.90;;;;;;6274520;22;19926;-80
2022/06/05 10:37:58;;;;;;;;;;;22.90;99.90;;;;;;6277005;22;19911;-80
2022/06/05 10:40:32;;;;;;;;;;;22.80;99.90;;;;;;6251383;22;19916;-80
2022/06/05 10:43:23;;;;;;;;;;;22.80;99.90;;;;;;6277484;22;19911;-80
2022/06/05 10:45:51;;;;;;;;;;;22.90;99.90;;;;;;6272506;22;19990;-80
2022/06/05 10:48:19;;;;;;;;;;;22.90;99.90;;;;;;6275686;22;20324;-79
2022/06/05 10:50:52;;;;;;;;;;;22.90;99.90;;;;;;6275142;22;19911;-80
2022/06/05 10:53:20;;;;;;;;;;;22.90;99.90;;;;;;6276478;22;19951;-80
2022/06/05 10:55:58;;;;;;;;;;;23.00;99.90;;;;;;6277338;22;19911;-80
2022/06/05 10:58:46;;;;;;;;;;;22.90;99.90;;;;;;6250792;22;19911;-80
2022/06/05 11:01:11;;;;;;;;;;;22.80;99.90;;;;;;6276160;22;19915;-80
2022/06/05 11:03:55;;;;;;;;;;;22.80;99.90;;;;;;6277215;22;20403;-80
2022/06/05 11:06:44;;;;;;;;;;;22.80;99.90;;;;;;6274499;22;19919;-80
2022/06/05 11:09:18;;;;;;;;;;;22.80;99.90;;;;;;6277628;22;19911;-79
2022/06/05 11:14:41;;;;;;;;;;;22.80;99.90;;;;;;6276780;22;19918;-80
2022/06/05 11:17:18;;;;;;;;;;;22.80;99.90;;;;;;6277070;22;19918;-79
2022/06/05 11:19:48;;;;;;;;;;;22.80;99.90;;;;;;6276986;22;20049;-80
2022/06/05 11:22:15;;;;;;;;;;;22.80;99.90;;;;;;6250047;22;20583;-79
2022/06/05 11:24:46;;;;;;;;;;;22.80;99.90;;;;;;6276255;22;20340;-80
2022/06/05 11:27:15;;;;;;;;;;;22.70;99.90;;;;;;6275319;22;19911;-79
2022/06/05 11:29:53;;;;;;;;;;;22.70;99.90;;;;;;6278041;22;19961;-80
2022/06/05 11:32:21;;;;;;;;;;;22.70;99.90;;;;;;6275646;22;19965;-80
2022/06/05 11:35:07;;;;;;;;;;;22.70;99.90;;;;;;6249877;22;19911;-81
2022/06/05 11:37:36;;;;;;;;;;;22.80;99.90;;;;;;6249763;22;19922;-80
2022/06/05 11:40:09;;;;;;;;;;;22.80;99.90;;;;;;6275961;22;19915;-81
2022/06/05 11:42:44;;;;;;;;;;;22.80;99.90;;;;;;6250381;22;19918;-80
2022/06/05 11:45:30;;;;;;;;;;;22.90;99.90;;;;;;6251034;22;19911;-80
2022/06/05 11:48:10;;;;;;;;;;;22.90;99.90;;;;;;6250127;22;20296;-80
2022/06/05 11:50:35;;;;;;;;;;;23.00;99.90;;;;;;6278408;22;19965;-80
2022/06/05 11:53:01;;;;;;;;;;;23.00;99.90;;;;;;6280027;22;19911;-80
2022/06/05 11:55:30;;;;;;;;;;;23.00;99.90;;;;;;6252691;22;19920;-80
2022/06/05 11:58:01;;;;;;;;;;;23.00;99.90;;;;;;6278297;22;19934;-80
2022/06/05 12:00:34;;;;;;;;;;;23.00;99.90;;;;;;6275547;22;19915;-79
2022/06/05 12:03:21;;;;;;;;;;;23.00;99.90;;;;;;6275502;22;20294;-79
2022/06/05 12:05:52;;;;;;;;;;;23.00;99.90;;;;;;6249819;22;19946;-80
2022/06/05 12:08:20;;;;;;;;;;;23.00;99.90;;;;;;6276469;22;19915;-80
2022/06/05 12:11:09;;;;;;;;;;;22.90;99.90;;;;;;6274468;22;19961;-80
2022/06/05 12:13:41;;;;;;;;;;;22.90;99.90;;;;;;6231425;22;19980;-79
2022/06/05 12:16:07;;;;;;;;;;;22.90;99.90;;;;;;6217968;23;19939;-79
2022/06/05 12:18:39;;;;;;;;;;;22.90;99.90;;;;;;6219102;23;19919;-79
2022/06/05 12:21:09;;;;;;;;;;;22.90;99.90;;;;;;6218937;23;19943;-79
2022/06/05 12:23:39;;;;;;;;;;;22.90;99.90;;;;;;6193860;23;19926;-79
2022/06/05 12:26:17;;;;;;;;;;;23.00;99.90;;;;;;6219414;23;19915;-78
2022/06/05 12:28:47;;;;;;;;;;;22.90;99.90;;;;;;6219254;23;19938;-80
2022/06/05 12:31:17;;;;;;;;;;;23.00;99.90;;;;;;6216772;23;19911;-78
2022/06/05 12:33:49;;;;;;;;;;;23.00;99.90;;;;;;6217908;23;19911;-78
2022/06/05 12:36:34;;;;;;;;;;;23.10;99.90;;;;;;6216789;23;19911;-78
2022/06/05 12:39:00;;;;;;;;;;;23.10;99.90;;;;;;6217089;23;19911;-79
2022/06/05 12:41:38;;;;;;;;;;;23.20;99.90;;;;;;6217272;23;19919;-79
2022/06/05 12:44:24;;;;;;;;;;;23.10;99.90;;;;;;6192486;23;19911;-78
2022/06/05 12:46:58;;;;;;;;;;;23.20;99.90;;;;;;6244116;23;20006;-79
2022/06/05 12:49:43;;;;;;;;;;;23.20;99.90;;;;;;6217548;23;19915;-78
2022/06/05 12:52:15;;;;;;;;;;;23.20;99.90;;;;;;6193167;23;19922;-80
2022/06/05 12:54:47;;;;;;;;;;;23.20;99.90;;;;;;6221322;23;19926;-79
2022/06/05 12:57:15;;;;;;;;;;;23.30;99.90;;;;;;6200269;23;19912;-79
2022/06/05 12:59:55;;;;;;;;;;;23.40;99.90;;;;;;6224428;23;19922;-79
2022/06/05 13:02:30;;;;;;;;;;;23.50;99.90;;;;;;6200408;22;19930;-80
2022/06/05 13:04:59;;;;;;;;;;;23.50;99.90;;;;;;6223284;23;19919;-79
2022/06/05 13:07:44;;;;;;;;;;;23.50;99.90;;;;;;6223259;23;19916;-79
2022/06/05 13:10:28;;;;;;;;;;;23.60;99.90;;;;;;6249996;23;19911;-80
2022/06/05 13:13:04;;;;;;;;;;;23.60;99.90;;;;;;6217706;23;19912;-79
2022/06/05 13:15:33;;;;;;;;;;;23.70;99.90;;;;;;6263154;22;20064;-79
2022/06/05 13:18:03;;;;;;;;;;;23.80;99.90;;;;;;6272568;22;19922;-79
2022/06/05 13:20:34;;;;;;;;;;;24.00;99.90;;;;;;6272458;22;19915;-79
2022/06/05 13:23:07;;;;;;;;;;;24.20;99.90;;;;;;6249332;22;19986;-80
2022/06/05 13:25:54;;;;;;;;;;;24.30;99.90;;;;;;6247682;22;19949;-80
2022/06/05 13:28:19;;;;;;;;;;;24.40;99.90;;;;;;6271906;22;19911;-80
2022/06/05 13:30:48;;;;;;;;;;;24.50;99.90;;;;;;6246902;22;20266;-80
2022/06/05 13:33:25;;;;;;;;;;;24.70;99.90;;;;;;6272300;22;19922;-80
2022/06/05 13:36:06;;;;;;;;;;;24.90;99.90;;;;;;6272701;22;19960;-80
2022/06/05 13:38:47;;;;;;;;;;;24.90;99.90;;;;;;6273816;22;19943;-80
2022/06/05 13:41:15;;;;;;;;;;;24.90;99.90;;;;;;6272078;22;19946;-80
2022/06/05 13:43:41;;;;;;;;;;;24.80;99.90;;;;;;6273874;22;20408;-80
2022/06/05 13:46:16;;;;;;;;;;;24.70;99.90;;;;;;6272048;22;20284;-80
2022/06/05 13:49:02;;;;;;;;;;;24.50;99.90;;;;;;6272507;22;19950;-81
2022/06/05 13:51:30;;;;;;;;;;;24.40;99.90;;;;;;6224888;22;20292;-80
2022/06/05 13:53:59;;;;;;;;;;;24.30;99.90;;;;;;6274183;22;19911;-81
2022/06/05 13:56:31;;;;;;;;;;;24.20;99.90;;;;;;6303934;22;19903;-81
2022/06/05 13:59:17;;;;;;;;;;;24.20;99.90;;;;;;6302859;22;19916;-82
2022/06/05 14:01:58;;;;;;;;;;;24.20;99.90;;;;;;6301319;22;19954;-81
2022/06/05 14:04:25;;;;;;;;;;;24.00;99.90;;;;;;6272065;22;19915;-83
2022/06/05 14:06:50;;;;;;;;;;;23.90;99.90;;;;;;6247725;22;19919;-82
2022/06/05 14:09:32;;;;;;;;;;;23.80;99.90;;;;;;6272364;22;19984;-83
2022/06/05 14:11:57;;;;;;;;;;;23.70;99.90;;;;;;6272865;22;19934;-83
2022/06/05 14:14:43;;;;;;;;;;;23.60;99.90;;;;;;6246602;22;20332;-82
2022/06/05 14:17:15;;;;;;;;;;;23.50;99.90;;;;;;6246085;22;19915;-82
2022/06/05 14:19:41;;;;;;;;;;;23.50;99.90;;;;;;6272773;22;19915;-83
2022/06/05 14:22:06;;;;;;;;;;;23.50;99.90;;;;;;6272232;22;19921;-82
2022/06/05 14:24:38;;;;;;;;;;;23.50;99.90;;;;;;6246824;22;19911;-83
2022/06/05 14:27:05;;;;;;;;;;;23.50;99.90;;;;;;6272040;22;19911;-81
2022/06/05 14:29:41;;;;;;;;;;;23.50;99.90;;;;;;6272531;22;19911;-82
2022/06/05 14:32:27;;;;;;;;;;;23.60;99.90;;;;;;6272449;22;20277;-82
2022/06/05 14:35:12;;;;;;;;;;;23.60;99.90;;;;;;6273517;22;19911;-82
2022/06/05 14:37:39;;;;;;;;;;;23.60;99.90;;;;;;6248283;22;19911;-82
2022/06/05 14:40:08;;;;;;;;;;;23.60;99.90;;;;;;6273400;22;20374;-81
2022/06/05 14:42:41;;;;;;;;;;;23.50;99.90;;;;;;6247818;22;19915;-82
2022/06/05 14:45:24;;;;;;;;;;;23.50;99.90;;;;;;6272540;22;19922;-82
2022/06/05 14:47:50;;;;;;;;;;;23.40;99.90;;;;;;6273003;22;19911;-81
2022/06/05 14:50:21;;;;;;;;;;;23.30;99.90;;;;;;6246396;22;19933;-81
2022/06/05 14:53:06;;;;;;;;;;;23.30;99.90;;;;;;6272195;22;19911;-81
2022/06/05 14:58:31;;;;;;;;;;;23.20;99.90;;;;;;6272262;22;19982;-80